Time,TemperatureF,DewpointF,PressureIn,WindDirection,WindDirectionDegrees,WindSpeedMPH,WindSpeedGustMPH,Humidity,HourlyPrecipIn,Conditions,Clouds,dailyrainin,SoftwareType,DateUTC
2013-01-24 00:00:00,8.5,0.1,30.17,WNW,302,0.0,0.0,68,0.00,,,0.00,Wunderground v.1.15,2013-01-24 05:00:00,
2013-01-24 00:01:00,8.6,0.5,30.17,WNW,302,0.0,0.0,69,0.00,,,0.00,Wunderground v.1.15,2013-01-24 05:01:00,
2013-01-24 00:07:00,8.6,1.0,30.17,WNW,302,0.0,-999.0,70,-99.99,,,0.00,weatherlink.com 1.10,2013-01-24 05:07:00,
2013-01-24 00:08:00,8.5,0.7,30.17,WNW,302,0.0,1.0,70,0.00,,,0.00,Wunderground v.1.15,2013-01-24 05:08:00,
2013-01-24 00:13:00,8.5,0.1,30.17,WNW,302,0.0,0.0,68,0.00,,,0.00,Wunderground v.1.15,2013-01-24 05:13:00,
2013-01-24 00:18:00,8.6,-0.4,30.17,WNW,302,0.0,0.0,66,0.00,,,0.00,Wunderground v.1.15,2013-01-24 05:18:00,
2013-01-24 00:24:00,8.6,0.2,30.16,WNW,302,0.0,1.0,68,0.00,,,0.00,Wunderground v.1.15,2013-01-24 05:24:00,
2013-01-24 00:29:00,8.6,1.1,30.16,WNW,302,0.0,1.0,71,0.00,,,0.00,Wunderground v.1.15,2013-01-24 05:29:00,
2013-01-24 00:34:00,8.5,0.7,30.16,WNW,302,0.0,0.0,70,0.00,,,0.00,Wunderground v.1.15,2013-01-24 05:34:00,
2013-01-24 00:39:00,8.3,0.2,30.16,WNW,302,0.0,1.0,69,0.00,,,0.00,Wunderground v.1.15,2013-01-24 05:39:00,
2013-01-24 00:45:00,8.3,-0.1,30.16,WNW,302,0.0,0.0,68,0.00,,,0.00,Wunderground v.1.15,2013-01-24 05:45:00,
2013-01-24 00:50:00,8.2,-0.8,30.16,WNW,302,0.0,0.0,66,0.00,,,0.00,Wunderground v.1.15,2013-01-24 05:50:00,
2013-01-24 00:56:00,8.4,-1.3,30.16,WNW,302,0.0,2.0,64,0.00,,,0.00,Wunderground v.1.15,2013-01-24 05:56:00,
2013-01-24 01:01:00,8.6,-1.4,30.16,North,5,0.0,0.0,63,0.00,,,0.00,Wunderground v.1.15,2013-01-24 06:01:00,
2013-01-24 01:06:00,8.7,-1.7,30.16,North,5,0.0,1.0,62,0.00,,,0.00,Wunderground v.1.15,2013-01-24 06:06:00,
2013-01-24 01:12:00,8.9,-1.5,30.16,North,5,0.0,0.0,62,0.00,,,0.00,Wunderground v.1.15,2013-01-24 06:12:00,
2013-01-24 01:18:00,8.9,-1.5,30.16,North,5,0.0,0.0,62,0.00,,,0.00,Wunderground v.1.15,2013-01-24 06:18:00,
2013-01-24 01:23:00,8.9,-1.1,30.16,NNW,332,0.0,0.0,63,0.00,,,0.00,Wunderground v.1.15,2013-01-24 06:23:00,
2013-01-24 01:28:00,8.8,-1.2,30.17,NNW,332,0.0,0.0,63,0.00,,,0.00,Wunderground v.1.15,2013-01-24 06:28:00,
2013-01-24 01:34:00,8.7,-1.0,30.17,NNW,332,0.0,1.0,64,0.00,,,0.00,Wunderground v.1.15,2013-01-24 06:34:00,
2013-01-24 01:39:00,8.6,-0.8,30.16,NNW,332,0.0,1.0,65,0.00,,,0.00,Wunderground v.1.15,2013-01-24 06:39:00,
2013-01-24 01:44:00,8.4,-0.3,30.16,NNW,332,0.0,0.0,67,0.00,,,0.00,Wunderground v.1.15,2013-01-24 06:44:00,
2013-01-24 01:50:00,8.2,0.7,30.16,NNW,332,0.0,0.0,71,0.00,,,0.00,Wunderground v.1.15,2013-01-24 06:50:00,
2013-01-24 01:55:00,8.0,0.5,30.16,NNW,332,0.0,0.0,71,0.00,,,0.00,Wunderground v.1.15,2013-01-24 06:55:00,
2013-01-24 02:00:00,7.8,0.3,30.16,NNW,332,0.0,0.0,71,0.00,,,0.00,Wunderground v.1.15,2013-01-24 07:00:00,
2013-01-24 02:05:00,7.6,0.2,30.16,NNW,332,0.0,1.0,71,0.00,,,0.00,Wunderground v.1.15,2013-01-24 07:05:00,
2013-01-24 02:10:00,7.4,0.3,30.16,NNW,332,0.0,0.0,72,0.00,,,0.00,Wunderground v.1.15,2013-01-24 07:10:00,
2013-01-24 02:15:00,7.2,0.1,30.16,NNW,332,0.0,0.0,72,0.00,,,0.00,Wunderground v.1.15,2013-01-24 07:15:00,
2013-01-24 02:20:00,7.1,0.3,30.15,NNW,332,0.0,0.0,73,0.00,,,0.00,Wunderground v.1.15,2013-01-24 07:20:00,
2013-01-24 02:25:00,6.9,0.1,30.15,NNW,332,0.0,0.0,73,0.00,,,0.00,Wunderground v.1.15,2013-01-24 07:25:00,
2013-01-24 02:30:00,6.7,0.2,30.15,NNW,332,0.0,0.0,74,0.00,,,0.00,Wunderground v.1.15,2013-01-24 07:30:00,
2013-01-24 02:35:00,6.6,0.1,30.15,NNW,332,0.0,0.0,74,0.00,,,0.00,Wunderground v.1.15,2013-01-24 07:35:00,
2013-01-24 02:40:00,6.4,-0.1,30.15,NNW,332,0.0,0.0,74,0.00,,,0.00,Wunderground v.1.15,2013-01-24 07:40:00,
2013-01-24 02:45:00,6.3,0.1,30.15,NNW,332,0.0,1.0,75,0.00,,,0.00,Wunderground v.1.15,2013-01-24 07:45:00,
2013-01-24 02:50:00,6.3,0.1,30.14,NNW,332,0.0,0.0,75,0.00,,,0.00,Wunderground v.1.15,2013-01-24 07:50:00,
2013-01-24 02:55:00,6.2,0.0,30.14,NNW,332,0.0,1.0,75,0.00,,,0.00,Wunderground v.1.15,2013-01-24 07:55:00,
2013-01-24 03:00:00,6.1,-0.1,30.14,NNW,332,0.0,0.0,75,0.00,,,0.00,Wunderground v.1.15,2013-01-24 08:00:00,
2013-01-24 03:05:00,6.0,-0.2,30.14,NNW,332,0.0,0.0,75,0.00,,,0.00,Wunderground v.1.15,2013-01-24 08:05:00,
2013-01-24 03:11:00,6.0,0.1,30.14,NNW,332,0.0,0.0,76,0.00,,,0.00,Wunderground v.1.15,2013-01-24 08:11:00,
2013-01-24 03:16:00,5.9,0.2,30.14,NNW,332,0.0,0.0,77,0.00,,,0.00,Wunderground v.1.15,2013-01-24 08:16:00,
2013-01-24 03:21:00,5.9,0.2,30.14,NNW,332,0.0,1.0,77,0.00,,,0.00,Wunderground v.1.15,2013-01-24 08:21:00,
2013-01-24 03:26:00,5.8,0.1,30.13,NNW,332,0.0,1.0,77,0.00,,,0.00,Wunderground v.1.15,2013-01-24 08:26:00,
2013-01-24 03:31:00,5.8,0.1,30.13,NNW,332,0.0,0.0,77,0.00,,,0.00,Wunderground v.1.15,2013-01-24 08:31:00,
2013-01-24 03:36:00,5.7,0.0,30.13,NNW,332,0.0,0.0,77,0.00,,,0.00,Wunderground v.1.15,2013-01-24 08:36:00,
2013-01-24 03:41:00,5.6,-0.1,30.13,NNW,332,0.0,0.0,77,0.00,,,0.00,Wunderground v.1.15,2013-01-24 08:41:00,
2013-01-24 03:46:00,5.5,-0.1,30.13,NNW,332,0.0,0.0,77,0.00,,,0.00,Wunderground v.1.15,2013-01-24 08:46:00,
2013-01-24 03:51:00,5.5,-0.1,30.13,NNW,332,0.0,0.0,77,0.00,,,0.00,Wunderground v.1.15,2013-01-24 08:51:00,
2013-01-24 03:56:00,5.4,-0.2,30.13,NNW,332,0.0,1.0,77,0.00,,,0.00,Wunderground v.1.15,2013-01-24 08:56:00,
2013-01-24 04:01:00,5.3,-0.3,30.13,ENE,58,1.0,2.0,77,0.00,,,0.00,Wunderground v.1.15,2013-01-24 09:01:00,
2013-01-24 04:06:00,5.3,-0.3,30.13,ENE,57,0.0,2.0,77,0.00,,,0.00,Wunderground v.1.15,2013-01-24 09:06:00,
2013-01-24 04:11:00,5.2,-0.4,30.13,ENE,57,0.0,1.0,77,0.00,,,0.00,Wunderground v.1.15,2013-01-24 09:11:00,
2013-01-24 04:16:00,5.2,-0.4,30.13,ENE,57,0.0,1.0,77,0.00,,,0.00,Wunderground v.1.15,2013-01-24 09:16:00,
2013-01-24 04:21:00,5.2,-0.4,30.13,ENE,57,0.0,1.0,77,0.00,,,0.00,Wunderground v.1.15,2013-01-24 09:21:00,
2013-01-24 04:26:00,5.1,-0.5,30.14,ENE,57,0.0,1.0,77,0.00,,,0.00,Wunderground v.1.15,2013-01-24 09:26:00,
2013-01-24 04:31:00,5.1,-0.5,30.14,NE,56,0.0,0.0,77,0.00,,,0.00,Wunderground v.1.15,2013-01-24 09:31:00,
2013-01-24 04:36:00,5.1,-0.5,30.13,NE,56,0.0,1.0,77,0.00,,,0.00,Wunderground v.1.15,2013-01-24 09:36:00,
2013-01-24 04:41:00,5.0,-0.4,30.13,NE,56,0.0,0.0,78,0.00,,,0.00,Wunderground v.1.15,2013-01-24 09:41:00,
2013-01-24 04:46:00,5.0,-0.4,30.13,NE,56,0.0,2.0,78,0.00,,,0.00,Wunderground v.1.15,2013-01-24 09:46:00,
2013-01-24 04:51:00,5.0,-0.4,30.14,NNW,340,0.0,0.0,78,0.00,,,0.00,Wunderground v.1.15,2013-01-24 09:51:00,
2013-01-24 04:56:00,5.0,-0.4,30.13,North,355,0.0,2.0,78,0.00,,,0.00,Wunderground v.1.15,2013-01-24 09:56:00,
2013-01-24 05:01:00,5.1,-0.3,30.14,North,355,0.0,1.0,78,0.00,,,0.00,Wunderground v.1.15,2013-01-24 10:01:00,
2013-01-24 05:06:00,5.2,-0.4,30.14,North,355,0.0,2.0,77,0.00,,,0.00,Wunderground v.1.15,2013-01-24 10:06:00,
2013-01-24 05:11:00,5.3,-0.6,30.14,North,355,0.0,3.0,76,0.00,,,0.00,Wunderground v.1.15,2013-01-24 10:11:00,
2013-01-24 05:16:00,5.4,-0.5,30.14,North,355,1.0,3.0,76,0.00,,,0.00,Wunderground v.1.15,2013-01-24 10:16:00,
2013-01-24 05:21:00,5.5,-0.4,30.14,North,355,0.0,2.0,76,0.00,,,0.00,Wunderground v.1.15,2013-01-24 10:21:00,
2013-01-24 05:26:00,5.7,-0.5,30.14,NW,305,0.0,4.0,75,0.00,,,0.00,Wunderground v.1.15,2013-01-24 10:26:00,
2013-01-24 05:31:00,5.8,-0.7,30.14,NW,305,0.0,2.0,74,0.00,,,0.00,Wunderground v.1.15,2013-01-24 10:31:00,
2013-01-24 05:37:00,5.8,-0.7,30.14,NNW,343,2.0,3.0,74,0.00,,,0.00,Wunderground v.1.15,2013-01-24 10:37:00,
2013-01-24 05:42:00,5.9,-0.9,30.14,North,5,3.0,3.0,73,0.00,,,0.00,Wunderground v.1.15,2013-01-24 10:42:00,
2013-01-24 05:47:00,6.0,-0.5,30.14,NW,321,1.0,4.0,74,0.00,,,0.00,Wunderground v.1.15,2013-01-24 10:47:00,
2013-01-24 05:52:00,6.0,-0.8,30.14,NW,322,1.0,3.0,73,0.00,,,0.00,Wunderground v.1.15,2013-01-24 10:52:00,
2013-01-24 05:57:00,6.1,-0.7,30.14,NNW,335,2.0,3.0,73,0.00,,,0.00,Wunderground v.1.15,2013-01-24 10:57:00,
2013-01-24 06:02:00,6.2,-1.2,30.14,NNW,333,0.0,2.0,71,0.00,,,0.00,Wunderground v.1.15,2013-01-24 11:02:00,
2013-01-24 06:07:00,6.3,-1.4,30.15,NNW,333,1.0,2.0,70,0.00,,,0.00,Wunderground v.1.15,2013-01-24 11:07:00,
2013-01-24 06:12:00,6.4,-1.0,30.15,NW,311,1.0,1.0,71,0.00,,,0.00,Wunderground v.1.15,2013-01-24 11:12:00,
2013-01-24 06:17:00,6.5,-0.6,30.15,NW,311,0.0,2.0,72,0.00,,,0.00,Wunderground v.1.15,2013-01-24 11:17:00,
2013-01-24 06:22:00,6.4,-0.7,30.15,NNW,329,2.0,2.0,72,0.00,,,0.00,Wunderground v.1.15,2013-01-24 11:22:00,
2013-01-24 06:27:00,6.5,-0.9,30.15,NNW,329,1.0,3.0,71,0.00,,,0.00,Wunderground v.1.15,2013-01-24 11:27:00,
2013-01-24 06:32:00,6.4,-0.7,30.16,NNW,338,0.0,2.0,72,0.00,,,0.00,Wunderground v.1.15,2013-01-24 11:32:00,
2013-01-24 06:37:00,6.5,-1.2,30.15,NNE,32,1.0,2.0,70,0.00,,,0.00,Wunderground v.1.15,2013-01-24 11:37:00,
2013-01-24 06:42:00,6.5,-1.2,30.16,NNE,32,0.0,2.0,70,0.00,,,0.00,Wunderground v.1.15,2013-01-24 11:42:00,
2013-01-24 06:47:00,6.5,-0.9,30.15,NW,311,1.0,3.0,71,0.00,,,0.00,Wunderground v.1.15,2013-01-24 11:47:00,
2013-01-24 06:52:00,6.5,-0.6,30.16,NNW,335,3.0,3.0,72,0.00,,,0.00,Wunderground v.1.15,2013-01-24 11:52:00,
2013-01-24 06:57:00,6.4,-1.0,30.16,NNW,343,2.0,3.0,71,0.00,,,0.00,Wunderground v.1.15,2013-01-24 11:57:00,
2013-01-24 07:02:00,6.6,-1.4,30.16,NNW,328,1.0,3.0,69,0.00,,,0.00,Wunderground v.1.15,2013-01-24 12:02:00,
2013-01-24 07:07:00,6.7,-1.0,30.16,NW,324,0.0,3.0,70,0.00,,,0.00,Wunderground v.1.15,2013-01-24 12:07:00,
2013-01-24 07:12:00,6.7,-0.7,30.16,NW,324,0.0,2.0,71,0.00,,,0.00,Wunderground v.1.15,2013-01-24 12:12:00,
2013-01-24 07:17:00,6.6,-1.1,30.16,NW,324,0.0,3.0,70,0.00,,,0.00,Wunderground v.1.15,2013-01-24 12:17:00,
2013-01-24 07:22:00,6.7,-1.0,30.16,NW,324,2.0,3.0,70,0.00,,,0.00,Wunderground v.1.15,2013-01-24 12:22:00,
2013-01-24 07:27:00,6.8,-1.2,30.16,NW,325,1.0,3.0,69,0.00,,,0.00,Wunderground v.1.15,2013-01-24 12:27:00,
2013-01-24 07:32:00,6.9,-1.1,30.16,NNW,339,0.0,2.0,69,0.00,,,0.00,Wunderground v.1.15,2013-01-24 12:32:00,
2013-01-24 07:37:00,6.9,-0.8,30.17,NNW,339,1.0,2.0,70,0.00,,,0.00,Wunderground v.1.15,2013-01-24 12:37:00,
2013-01-24 07:42:00,7.0,-0.7,30.17,North,360,1.0,2.0,70,0.00,,,0.00,Wunderground v.1.15,2013-01-24 12:42:00,
2013-01-24 07:47:00,7.2,-1.2,30.17,NW,317,2.0,3.0,68,0.00,,,0.00,Wunderground v.1.15,2013-01-24 12:47:00,
2013-01-24 07:52:00,7.4,-1.0,30.17,NW,317,1.0,3.0,68,0.00,,,0.00,Wunderground v.1.15,2013-01-24 12:52:00,
2013-01-24 07:58:00,7.6,-0.8,30.17,NW,317,1.0,3.0,68,0.00,,,0.00,Wunderground v.1.15,2013-01-24 12:58:00,
2013-01-24 08:03:00,7.8,-0.6,30.17,NNW,329,0.0,3.0,68,0.00,,,0.00,Wunderground v.1.15,2013-01-24 13:03:00,
2013-01-24 08:08:00,8.1,-0.6,30.17,NNW,329,2.0,3.0,67,0.00,,,0.00,Wunderground v.1.15,2013-01-24 13:08:00,
2013-01-24 08:13:00,8.3,-0.4,30.17,NNW,330,0.0,3.0,67,0.00,,,0.00,Wunderground v.1.15,2013-01-24 13:13:00,
2013-01-24 08:18:00,8.6,-0.4,30.17,NW,312,0.0,4.0,66,0.00,,,0.00,Wunderground v.1.15,2013-01-24 13:18:00,
2013-01-24 08:23:00,8.8,-0.3,30.17,WNW,303,3.0,4.0,66,0.00,,,0.00,Wunderground v.1.15,2013-01-24 13:23:00,
2013-01-24 08:28:00,9.0,-0.7,30.17,NNW,327,4.0,6.0,64,0.00,,,0.00,Wunderground v.1.15,2013-01-24 13:28:00,
2013-01-24 08:33:00,9.3,-0.4,30.17,NW,306,0.0,5.0,64,0.00,,,0.00,Wunderground v.1.15,2013-01-24 13:33:00,
2013-01-24 08:38:00,9.6,-0.1,30.17,ESE,111,5.0,5.0,64,0.00,,,0.00,Wunderground v.1.15,2013-01-24 13:38:00,
2013-01-24 08:43:00,10.0,-0.4,30.17,NNE,22,1.0,6.0,62,0.00,,,0.00,Wunderground v.1.15,2013-01-24 13:43:00,
2013-01-24 08:48:00,10.2,-0.2,30.17,NW,324,3.0,6.0,62,0.00,,,0.00,Wunderground v.1.15,2013-01-24 13:48:00,
2013-01-24 08:53:00,10.4,-0.4,30.16,NNW,342,0.0,5.0,61,0.00,,,0.00,Wunderground v.1.15,2013-01-24 13:53:00,
2013-01-24 08:58:00,10.7,-0.1,30.17,NW,307,3.0,7.0,61,0.00,,,0.00,Wunderground v.1.15,2013-01-24 13:58:00,
2013-01-24 09:03:00,10.9,-0.3,30.16,NW,324,0.0,7.0,60,0.00,,,0.00,Wunderground v.1.15,2013-01-24 14:03:00,
2013-01-24 09:08:00,11.2,-0.4,30.16,NW,324,3.0,8.0,59,0.00,,,0.00,Wunderground v.1.15,2013-01-24 14:08:00,
2013-01-24 09:13:00,11.6,0.7,30.16,WNW,292,1.0,4.0,61,0.00,,,0.00,Wunderground v.1.15,2013-01-24 14:13:00,
2013-01-24 09:18:00,11.9,0.3,30.16,NW,317,3.0,9.0,59,0.00,,,0.00,Wunderground v.1.15,2013-01-24 14:18:00,
2013-01-24 09:23:00,12.2,0.6,30.16,NW,313,1.0,5.0,59,0.00,,,0.00,Wunderground v.1.15,2013-01-24 14:23:00,
2013-01-24 09:28:00,12.6,0.6,30.16,NNW,329,3.0,6.0,58,0.00,,,0.00,Wunderground v.1.15,2013-01-24 14:28:00,
2013-01-24 09:33:00,12.9,0.9,30.15,WNW,286,3.0,7.0,58,0.00,,,0.00,Wunderground v.1.15,2013-01-24 14:33:00,
2013-01-24 09:38:00,13.3,0.9,30.15,North,360,1.0,7.0,57,0.00,,,0.00,Wunderground v.1.15,2013-01-24 14:38:00,
2013-01-24 09:43:00,13.6,0.8,30.16,NNW,336,3.0,8.0,56,0.00,,,0.00,Wunderground v.1.15,2013-01-24 14:43:00,
2013-01-24 09:48:00,13.9,0.3,30.16,WNW,291,5.0,10.0,54,0.00,,,0.00,Wunderground v.1.15,2013-01-24 14:48:00,
2013-01-24 09:53:00,14.2,0.6,30.16,NNW,336,8.0,11.0,54,0.00,,,0.00,Wunderground v.1.15,2013-01-24 14:53:00,
2013-01-24 09:58:00,14.4,0.0,30.16,North,355,5.0,11.0,52,0.00,,,0.00,Wunderground v.1.15,2013-01-24 14:58:00,
2013-01-24 10:03:00,14.6,0.1,30.16,West,278,6.0,8.0,52,0.00,,,0.00,Wunderground v.1.15,2013-01-24 15:03:00,
2013-01-24 10:08:00,14.9,0.4,30.16,North,355,5.0,9.0,52,0.00,,,0.00,Wunderground v.1.15,2013-01-24 15:08:00,
2013-01-24 10:13:00,15.2,-0.1,30.16,North,9,5.0,7.0,50,0.00,,,0.00,Wunderground v.1.15,2013-01-24 15:13:00,
2013-01-24 10:18:00,15.6,1.1,30.16,WNW,288,5.0,7.0,52,0.00,,,0.00,Wunderground v.1.15,2013-01-24 15:18:00,
2013-01-24 10:23:00,15.9,0.5,30.16,NNW,346,4.0,7.0,50,0.00,,,0.00,Wunderground v.1.15,2013-01-24 15:23:00,
2013-01-24 10:29:00,16.2,0.4,30.16,NE,34,5.0,8.0,49,0.00,,,0.00,Wunderground v.1.15,2013-01-24 15:29:00,
2013-01-24 10:34:00,16.4,0.1,30.16,North,349,10.0,10.0,48,0.00,,,0.00,Wunderground v.1.15,2013-01-24 15:34:00,
2013-01-24 10:39:00,16.6,0.3,30.16,NW,311,8.0,13.0,48,0.00,,,0.00,Wunderground v.1.15,2013-01-24 15:39:00,
2013-01-24 10:44:00,16.7,-0.1,30.16,WNW,302,7.0,11.0,47,0.00,,,0.00,Wunderground v.1.15,2013-01-24 15:44:00,
2013-01-24 10:49:00,16.8,0.0,30.15,NNW,328,7.0,11.0,47,0.00,,,0.00,Wunderground v.1.15,2013-01-24 15:49:00,
2013-01-24 10:54:00,17.0,0.2,30.15,WNW,297,3.0,8.0,47,0.00,,,0.00,Wunderground v.1.15,2013-01-24 15:54:00,
2013-01-24 10:59:00,17.0,-0.3,30.15,NW,316,5.0,11.0,46,0.00,,,0.00,Wunderground v.1.15,2013-01-24 15:59:00,
2013-01-24 11:04:00,16.9,-0.8,30.15,WNW,294,6.0,9.0,45,0.00,,,0.00,Wunderground v.1.15,2013-01-24 16:04:00,
2013-01-24 11:09:00,17.0,-0.3,30.15,NW,308,3.0,10.0,46,0.00,,,0.00,Wunderground v.1.15,2013-01-24 16:09:00,
2013-01-24 11:14:00,17.1,-0.6,30.15,West,272,5.0,10.0,45,0.00,,,0.00,Wunderground v.1.15,2013-01-24 16:14:00,
2013-01-24 11:19:00,17.1,-1.1,30.15,NW,315,6.0,12.0,44,0.00,,,0.00,Wunderground v.1.15,2013-01-24 16:19:00,
2013-01-24 11:24:00,17.2,-0.5,30.15,WNW,296,1.0,9.0,45,0.00,,,0.00,Wunderground v.1.15,2013-01-24 16:24:00,
2013-01-24 11:29:00,17.5,-0.7,30.15,NNE,12,2.0,9.0,44,0.00,,,0.00,Wunderground v.1.15,2013-01-24 16:29:00,
2013-01-24 11:34:00,17.7,-0.1,30.14,WNW,284,6.0,11.0,45,0.00,,,0.00,Wunderground v.1.15,2013-01-24 16:34:00,
2013-01-24 11:39:00,17.9,-0.9,30.14,WNW,302,7.0,11.0,43,0.00,,,0.00,Wunderground v.1.15,2013-01-24 16:39:00,
2013-01-24 11:44:00,18.0,-0.3,30.14,WNW,302,3.0,11.0,44,0.00,,,0.00,Wunderground v.1.15,2013-01-24 16:44:00,
2013-01-24 11:49:00,18.2,-1.1,30.13,NNW,346,5.0,11.0,42,0.00,,,0.00,Wunderground v.1.15,2013-01-24 16:49:00,
2013-01-24 11:54:00,18.4,-0.9,30.13,North,355,4.0,10.0,42,0.00,,,0.00,Wunderground v.1.15,2013-01-24 16:54:00,
2013-01-24 11:59:00,18.6,-1.2,30.13,NW,304,5.0,10.0,41,0.00,,,0.00,Wunderground v.1.15,2013-01-24 16:59:00,
2013-01-24 12:04:00,18.9,-1.0,30.13,NW,326,4.0,12.0,41,0.00,,,0.00,Wunderground v.1.15,2013-01-24 17:04:00,
2013-01-24 12:09:00,19.1,-1.3,30.13,WNW,301,3.0,12.0,40,0.00,,,0.00,Wunderground v.1.15,2013-01-24 17:09:00,
2013-01-24 12:14:00,19.5,-0.4,30.13,North,360,4.0,9.0,41,0.00,,,0.00,Wunderground v.1.15,2013-01-24 17:14:00,
2013-01-24 12:19:00,19.9,-0.1,30.13,WSW,256,5.0,12.0,41,0.00,,,0.00,Wunderground v.1.15,2013-01-24 17:19:00,
2013-01-24 12:24:00,20.2,-1.4,30.13,NE,44,6.0,11.0,38,0.00,,,0.00,Wunderground v.1.15,2013-01-24 17:24:00,
2013-01-24 12:29:00,20.3,-0.2,30.12,NNW,342,4.0,11.0,40,0.00,,,0.00,Wunderground v.1.15,2013-01-24 17:29:00,
2013-01-24 12:34:00,20.6,-1.0,30.13,NW,313,7.0,12.0,38,0.00,,,0.00,Wunderground v.1.15,2013-01-24 17:34:00,
2013-01-24 12:39:00,20.5,-1.1,30.12,North,350,5.0,13.0,38,0.00,,,0.00,Wunderground v.1.15,2013-01-24 17:39:00,
2013-01-24 12:44:00,20.8,-0.3,30.12,NNW,327,5.0,10.0,39,0.00,,,0.00,Wunderground v.1.15,2013-01-24 17:44:00,
2013-01-24 12:49:00,21.2,-0.5,30.12,NW,321,9.0,10.0,38,0.00,,,0.00,Wunderground v.1.15,2013-01-24 17:49:00,
2013-01-24 12:54:00,21.2,-1.6,30.12,WNW,282,7.0,10.0,36,0.00,,,0.00,Wunderground v.1.15,2013-01-24 17:54:00,
2013-01-24 12:59:00,20.9,-1.9,30.13,NNW,335,4.0,10.0,36,0.00,,,0.00,Wunderground v.1.15,2013-01-24 17:59:00,
2013-01-24 13:04:00,21.0,-1.8,30.12,WNW,301,8.0,12.0,36,0.00,,,0.00,Wunderground v.1.15,2013-01-24 18:04:00,
2013-01-24 13:09:00,21.1,-1.7,30.12,NNW,331,5.0,12.0,36,0.00,,,0.00,Wunderground v.1.15,2013-01-24 18:09:00,
2013-01-24 13:14:00,21.1,-2.3,30.12,NW,310,5.0,15.0,35,0.00,,,0.00,Wunderground v.1.15,2013-01-24 18:14:00,
2013-01-24 13:19:00,21.2,-1.6,30.12,North,350,3.0,15.0,36,0.00,,,0.00,Wunderground v.1.15,2013-01-24 18:19:00,
2013-01-24 13:24:00,21.6,-1.3,30.13,NE,47,10.0,13.0,36,0.00,,,0.00,Wunderground v.1.15,2013-01-24 18:24:00,
2013-01-24 13:29:00,21.6,-2.5,30.12,NNW,348,4.0,13.0,34,0.00,,,0.00,Wunderground v.1.15,2013-01-24 18:29:00,
2013-01-24 13:34:00,21.5,-2.6,30.13,NW,317,9.0,15.0,34,0.00,,,0.00,Wunderground v.1.15,2013-01-24 18:34:00,
2013-01-24 13:39:00,21.4,-2.1,30.13,WSW,254,4.0,15.0,35,0.00,,,0.00,Wunderground v.1.15,2013-01-24 18:39:00,
2013-01-24 13:44:00,21.5,-2.6,30.13,NE,39,7.0,11.0,34,0.00,,,0.00,Wunderground v.1.15,2013-01-24 18:44:00,
2013-01-24 13:49:00,21.5,-2.6,30.13,NW,308,6.0,15.0,34,0.00,,,0.00,Wunderground v.1.15,2013-01-24 18:49:00,
2013-01-24 13:54:00,21.5,-3.2,30.13,NNW,331,9.0,9.0,33,0.00,,,0.00,Wunderground v.1.15,2013-01-24 18:54:00,
2013-01-24 13:59:00,21.4,-2.7,30.13,NNW,329,7.0,14.0,34,0.00,,,0.00,Wunderground v.1.15,2013-01-24 18:59:00,
2013-01-24 14:04:00,21.6,-0.7,30.13,North,5,2.0,10.0,37,0.00,,,0.00,Wunderground v.1.15,2013-01-24 19:04:00,
2013-01-24 14:09:00,21.9,-2.2,30.13,North,355,3.0,10.0,34,0.00,,,0.00,Wunderground v.1.15,2013-01-24 19:09:00,
2013-01-24 14:14:00,21.8,-2.9,30.13,North,5,7.0,12.0,33,0.00,,,0.00,Wunderground v.1.15,2013-01-24 19:14:00,
2013-01-24 14:19:00,21.8,-2.3,30.14,NNW,345,8.0,12.0,34,0.00,,,0.00,Wunderground v.1.15,2013-01-24 19:19:00,
2013-01-24 14:24:00,21.8,-2.9,30.14,NW,312,2.0,7.0,33,0.00,,,0.00,Wunderground v.1.15,2013-01-24 19:24:00,
2013-01-24 14:29:00,21.9,-2.2,30.14,NW,320,6.0,10.0,34,0.00,,,0.00,Wunderground v.1.15,2013-01-24 19:29:00,
2013-01-24 14:34:00,21.9,-2.2,30.14,WNW,301,6.0,8.0,34,0.00,,,0.00,Wunderground v.1.15,2013-01-24 19:34:00,
2013-01-24 14:39:00,21.9,-2.9,30.15,North,360,2.0,9.0,33,0.00,,,0.00,Wunderground v.1.15,2013-01-24 19:39:00,
2013-01-24 14:44:00,22.1,-2.0,30.15,WNW,301,3.0,7.0,34,0.00,,,0.00,Wunderground v.1.15,2013-01-24 19:44:00,
2013-01-24 14:49:00,22.2,-0.7,30.15,North,351,3.0,7.0,36,0.00,,,0.00,Wunderground v.1.15,2013-01-24 19:49:00,
2013-01-24 14:54:00,22.3,-1.3,30.15,SW,223,5.0,9.0,35,0.00,,,0.00,Wunderground v.1.15,2013-01-24 19:54:00,
2013-01-24 14:59:00,22.2,-2.0,30.15,North,355,4.0,9.0,34,0.00,,,0.00,Wunderground v.1.15,2013-01-24 19:59:00,
2013-01-24 15:04:00,22.0,-1.5,30.15,WNW,286,3.0,8.0,35,0.00,,,0.00,Wunderground v.1.15,2013-01-24 20:04:00,
2013-01-24 15:09:00,22.0,-1.5,30.15,SSW,213,5.0,8.0,35,0.00,,,0.00,Wunderground v.1.15,2013-01-24 20:09:00,
2013-01-24 15:14:00,21.9,-0.4,30.15,NW,325,4.0,9.0,37,0.00,,,0.00,Wunderground v.1.15,2013-01-24 20:14:00,
2013-01-24 15:19:00,21.9,-1.0,30.15,NW,311,3.0,12.0,36,0.00,,,0.00,Wunderground v.1.15,2013-01-24 20:19:00,
2013-01-24 15:24:00,21.8,-1.7,30.15,WNW,303,6.0,9.0,35,0.00,,,0.00,Wunderground v.1.15,2013-01-24 20:24:00,
2013-01-24 15:29:00,21.8,-1.1,30.15,NW,304,4.0,9.0,36,0.00,,,0.00,Wunderground v.1.15,2013-01-24 20:29:00,
2013-01-24 15:34:00,21.7,-1.2,30.15,North,355,6.0,6.0,36,0.00,,,0.00,Wunderground v.1.15,2013-01-24 20:34:00,
2013-01-24 15:39:00,21.7,-1.2,30.15,NW,314,3.0,8.0,36,0.00,,,0.00,Wunderground v.1.15,2013-01-24 20:39:00,
2013-01-24 15:44:00,21.6,-1.9,30.15,NW,306,0.0,7.0,35,0.00,,,0.00,Wunderground v.1.15,2013-01-24 20:44:00,
2013-01-24 15:49:00,21.5,-0.2,30.15,WNW,296,2.0,8.0,38,0.00,,,0.00,Wunderground v.1.15,2013-01-24 20:49:00,
2013-01-24 15:55:00,21.4,-0.9,30.15,SW,219,1.0,11.0,37,0.00,,,0.00,Wunderground v.1.15,2013-01-24 20:55:00,
2013-01-24 16:00:00,21.3,-1.0,30.15,NNW,338,4.0,4.0,37,0.00,,,0.00,Wunderground v.1.15,2013-01-24 21:00:00,
2013-01-24 16:05:00,21.1,-0.6,30.16,NW,309,4.0,9.0,38,0.00,,,0.00,Wunderground v.1.15,2013-01-24 21:05:00,
2013-01-24 16:10:00,21.0,-0.7,30.16,SSW,192,9.0,9.0,38,0.00,,,0.00,Wunderground v.1.15,2013-01-24 21:10:00,
2013-01-24 16:15:00,20.9,-1.9,30.16,NNE,13,2.0,10.0,36,0.00,,,0.00,Wunderground v.1.15,2013-01-24 21:15:00,
2013-01-24 16:20:00,20.7,-2.1,30.17,North,355,4.0,4.0,36,0.00,,,0.00,Wunderground v.1.15,2013-01-24 21:20:00,
2013-01-24 16:25:00,20.7,-2.7,30.17,NW,304,4.0,10.0,35,0.00,,,0.00,Wunderground v.1.15,2013-01-24 21:25:00,
2013-01-24 16:30:00,20.6,-2.8,30.17,WNW,296,0.0,4.0,35,0.00,,,0.00,Wunderground v.1.15,2013-01-24 21:30:00,
2013-01-24 16:35:00,20.5,-2.3,30.18,NNW,332,3.0,7.0,36,0.00,,,0.00,Wunderground v.1.15,2013-01-24 21:35:00,
2013-01-24 16:40:00,20.4,-2.4,30.18,WNW,303,1.0,2.0,36,0.00,,,0.00,Wunderground v.1.15,2013-01-24 21:40:00,
2013-01-24 16:45:00,20.3,-1.9,30.18,NNW,346,6.0,9.0,37,0.00,,,0.00,Wunderground v.1.15,2013-01-24 21:45:00,
2013-01-24 16:50:00,20.3,-2.5,30.18,West,277,6.0,7.0,36,0.00,,,0.00,Wunderground v.1.15,2013-01-24 21:50:00,
2013-01-24 16:55:00,20.2,-2.0,30.18,NW,321,0.0,7.0,37,0.00,,,0.00,Wunderground v.1.15,2013-01-24 21:55:00,
2013-01-24 17:00:00,20.0,-2.1,30.18,NW,304,1.0,3.0,37,0.00,,,0.00,Wunderground v.1.15,2013-01-24 22:00:00,
2013-01-24 17:05:00,19.9,-2.8,30.18,NNW,336,4.0,7.0,36,0.00,,,0.00,Wunderground v.1.15,2013-01-24 22:05:00,
2013-01-24 17:10:00,19.9,-2.2,30.19,ESE,107,2.0,3.0,37,0.00,,,0.00,Wunderground v.1.15,2013-01-24 22:10:00,
2013-01-24 17:15:00,19.7,-3.0,30.19,WNW,297,5.0,8.0,36,0.00,,,0.00,Wunderground v.1.15,2013-01-24 22:15:00,
2013-01-24 17:20:00,19.6,-3.1,30.20,SSW,211,1.0,5.0,36,0.00,,,0.00,Wunderground v.1.15,2013-01-24 22:20:00,
2013-01-24 17:25:00,19.6,-3.7,30.20,WNW,300,4.0,8.0,35,0.00,,,0.00,Wunderground v.1.15,2013-01-24 22:25:00,
2013-01-24 17:30:00,19.6,-3.1,30.20,WSW,254,8.0,9.0,36,0.00,,,0.00,Wunderground v.1.15,2013-01-24 22:30:00,
2013-01-24 17:35:00,19.5,-3.2,30.20,WNW,295,3.0,9.0,36,0.00,,,0.00,Wunderground v.1.15,2013-01-24 22:35:00,
2013-01-24 17:40:00,19.4,-3.3,30.21,West,271,3.0,5.0,36,0.00,,,0.00,Wunderground v.1.15,2013-01-24 22:40:00,
2013-01-24 17:45:00,19.3,-2.8,30.21,WNW,287,5.0,7.0,37,0.00,,,0.00,Wunderground v.1.15,2013-01-24 22:45:00,
2013-01-24 17:50:00,19.2,-3.4,30.21,NW,313,3.0,3.0,36,0.00,,,0.00,Wunderground v.1.15,2013-01-24 22:50:00,
2013-01-24 17:55:00,19.1,-3.0,30.21,WNW,302,4.0,4.0,37,0.00,,,0.00,Wunderground v.1.15,2013-01-24 22:55:00,
2013-01-24 18:00:00,18.9,-2.6,30.22,SW,224,4.0,6.0,38,0.00,,,0.00,Wunderground v.1.15,2013-01-24 23:00:00,
2013-01-24 18:05:00,18.9,-3.1,30.22,WSW,257,1.0,6.0,37,0.00,,,0.00,Wunderground v.1.15,2013-01-24 23:05:00,
2013-01-24 18:10:00,18.9,-3.1,30.22,NNW,345,4.0,4.0,37,0.00,,,0.00,Wunderground v.1.15,2013-01-24 23:10:00,
2013-01-24 18:16:00,19.0,-3.6,30.22,WNW,284,3.0,10.0,36,0.00,,,0.00,Wunderground v.1.15,2013-01-24 23:16:00,
2013-01-24 18:21:00,19.1,-3.5,30.22,WSW,257,10.0,10.0,36,0.00,,,0.00,Wunderground v.1.15,2013-01-24 23:21:00,
2013-01-24 18:26:00,19.0,-3.6,30.22,NW,321,1.0,10.0,36,0.00,,,0.00,Wunderground v.1.15,2013-01-24 23:26:00,
2013-01-24 18:31:00,19.0,-4.2,30.22,NNW,327,7.0,10.0,35,0.00,,,0.00,Wunderground v.1.15,2013-01-24 23:31:00,
2013-01-24 18:36:00,18.9,-3.1,30.22,WNW,288,6.0,10.0,37,0.00,,,0.00,Wunderground v.1.15,2013-01-24 23:36:00,
2013-01-24 18:41:00,18.9,-3.1,30.23,North,5,0.0,6.0,37,0.00,,,0.00,Wunderground v.1.15,2013-01-24 23:41:00,
2013-01-24 18:46:00,18.8,-2.7,30.23,NNW,345,4.0,6.0,38,0.00,,,0.00,Wunderground v.1.15,2013-01-24 23:46:00,
2013-01-24 18:51:00,18.6,-2.8,30.23,NW,318,6.0,9.0,38,0.00,,,0.00,Wunderground v.1.15,2013-01-24 23:51:00,
2013-01-24 18:56:00,18.6,-3.4,30.23,NNE,13,3.0,9.0,37,0.00,,,0.00,Wunderground v.1.15,2013-01-24 23:56:00,
2013-01-24 19:01:00,18.6,-4.0,30.24,NNW,335,5.0,9.0,36,0.00,,,0.00,Wunderground v.1.15,2013-01-25 00:01:00,
2013-01-24 19:06:00,18.7,-3.9,30.24,NE,56,0.0,10.0,36,0.00,,,0.00,Wunderground v.1.15,2013-01-25 00:06:00,
2013-01-24 19:11:00,18.6,-4.0,30.24,NW,319,5.0,7.0,36,0.00,,,0.00,Wunderground v.1.15,2013-01-25 00:11:00,
2013-01-24 19:16:00,18.6,-4.0,30.24,North,5,3.0,7.0,36,0.00,,,0.00,Wunderground v.1.15,2013-01-25 00:16:00,
2013-01-24 19:21:00,18.5,-3.5,30.24,WNW,288,2.0,6.0,37,0.00,,,0.00,Wunderground v.1.15,2013-01-25 00:21:00,
2013-01-24 19:26:00,18.4,-4.2,30.24,NW,305,0.0,6.0,36,0.00,,,0.00,Wunderground v.1.15,2013-01-25 00:26:00,
2013-01-24 19:31:00,18.2,-3.2,30.24,West,265,6.0,7.0,38,0.00,,,0.00,Wunderground v.1.15,2013-01-25 00:31:00,
2013-01-24 19:36:00,18.1,-3.3,30.24,NW,306,1.0,7.0,38,0.00,,,0.00,Wunderground v.1.15,2013-01-25 00:36:00,
2013-01-24 19:41:00,17.9,-2.4,30.24,NNE,25,5.0,8.0,40,0.00,,,0.00,Wunderground v.1.15,2013-01-25 00:41:00,
2013-01-24 19:46:00,17.7,-3.1,30.24,North,10,3.0,11.0,39,0.00,,,0.00,Wunderground v.1.15,2013-01-25 00:46:00,
2013-01-24 19:51:00,17.7,-3.7,30.23,NW,325,2.0,10.0,38,0.00,,,0.00,Wunderground v.1.15,2013-01-25 00:51:00,
2013-01-24 19:56:00,17.8,-3.6,30.24,SW,225,4.0,10.0,38,0.00,,,0.00,Wunderground v.1.15,2013-01-25 00:56:00,
2013-01-24 20:01:00,17.8,-4.1,30.24,WNW,290,2.0,4.0,37,0.00,,,0.00,Wunderground v.1.15,2013-01-25 01:01:00,
2013-01-24 20:06:00,17.7,-2.6,30.25,NNE,22,0.0,8.0,40,0.00,,,0.00,Wunderground v.1.15,2013-01-25 01:06:00,
2013-01-24 20:11:00,17.6,-3.7,30.25,West,279,5.0,6.0,38,0.00,,,0.00,Wunderground v.1.15,2013-01-25 01:11:00,
2013-01-24 20:16:00,17.6,-3.7,30.25,NW,313,3.0,8.0,38,0.00,,,0.00,Wunderground v.1.15,2013-01-25 01:16:00,
2013-01-24 20:21:00,17.6,-4.3,30.25,West,276,3.0,4.0,37,0.00,,,0.00,Wunderground v.1.15,2013-01-25 01:21:00,
2013-01-24 20:26:00,17.5,-3.8,30.25,SSE,161,1.0,8.0,38,0.00,,,0.00,Wunderground v.1.15,2013-01-25 01:26:00,
2013-01-24 20:31:00,17.4,-3.4,30.25,NNW,343,6.0,6.0,39,0.00,,,0.00,Wunderground v.1.15,2013-01-25 01:31:00,
2013-01-24 20:36:00,17.3,-3.5,30.25,West,280,5.0,13.0,39,0.00,,,0.00,Wunderground v.1.15,2013-01-25 01:36:00,
2013-01-24 20:41:00,17.3,-3.5,30.26,NW,310,2.0,5.0,39,0.00,,,0.00,Wunderground v.1.15,2013-01-25 01:41:00,
2013-01-24 20:46:00,17.2,-3.0,30.25,NNW,340,3.0,7.0,40,0.00,,,0.00,Wunderground v.1.15,2013-01-25 01:46:00,
2013-01-24 20:51:00,17.1,-3.6,30.26,West,271,2.0,8.0,39,0.00,,,0.00,Wunderground v.1.15,2013-01-25 01:51:00,
2013-01-24 20:56:00,17.0,-3.7,30.26,NNW,335,3.0,12.0,39,0.00,,,0.00,Wunderground v.1.15,2013-01-25 01:56:00,
2013-01-24 21:01:00,17.0,-3.2,30.26,NNW,334,6.0,6.0,40,0.00,,,0.00,Wunderground v.1.15,2013-01-25 02:01:00,
2013-01-24 21:06:00,17.0,-3.2,30.26,NNW,331,3.0,11.0,40,0.00,,,0.00,Wunderground v.1.15,2013-01-25 02:06:00,
2013-01-24 21:11:00,17.0,-3.2,30.26,NW,325,3.0,8.0,40,0.00,,,0.00,Wunderground v.1.15,2013-01-25 02:11:00,
2013-01-24 21:16:00,16.8,-2.9,30.26,WSW,258,11.0,11.0,41,0.00,,,0.00,Wunderground v.1.15,2013-01-25 02:16:00,
2013-01-24 21:21:00,16.7,-3.0,30.26,West,271,8.0,11.0,41,0.00,,,0.00,Wunderground v.1.15,2013-01-25 02:21:00,
2013-01-24 21:26:00,16.6,-3.1,30.26,WNW,292,4.0,11.0,41,0.00,,,0.00,Wunderground v.1.15,2013-01-25 02:26:00,
2013-01-24 21:31:00,16.7,-3.0,30.27,NNW,329,4.0,7.0,41,0.00,,,0.00,Wunderground v.1.15,2013-01-25 02:31:00,
2013-01-24 21:36:00,16.5,-2.1,30.27,West,269,12.0,12.0,43,0.00,,,0.00,Wunderground v.1.15,2013-01-25 02:36:00,
2013-01-24 21:41:00,16.4,-2.2,30.27,WNW,298,3.0,8.0,43,0.00,,,0.00,Wunderground v.1.15,2013-01-25 02:41:00,
2013-01-24 21:46:00,16.4,-1.7,30.27,WNW,289,2.0,8.0,44,0.00,,,0.00,Wunderground v.1.15,2013-01-25 02:46:00,
2013-01-24 21:51:00,16.3,-1.8,30.27,NW,317,2.0,9.0,44,0.00,,,0.00,Wunderground v.1.15,2013-01-25 02:51:00,
2013-01-24 21:56:00,16.3,-1.4,30.27,West,269,7.0,9.0,45,0.00,,,0.00,Wunderground v.1.15,2013-01-25 02:56:00,
2013-01-24 22:01:00,16.2,-1.5,30.27,NNW,329,6.0,7.0,45,0.00,,,0.00,Wunderground v.1.15,2013-01-25 03:01:00,
2013-01-24 22:06:00,16.1,-0.6,30.27,NNW,341,3.0,8.0,47,0.00,,,0.00,Wunderground v.1.15,2013-01-25 03:06:00,
2013-01-24 22:11:00,16.0,-0.3,30.27,NW,312,9.0,11.0,48,0.00,,,0.00,Wunderground v.1.15,2013-01-25 03:11:00,
2013-01-24 22:16:00,15.9,0.5,30.27,North,5,3.0,11.0,50,0.00,,,0.00,Wunderground v.1.15,2013-01-25 03:16:00,
2013-01-24 22:21:00,15.9,0.5,30.27,NW,314,5.0,13.0,50,0.00,,,0.00,Wunderground v.1.15,2013-01-25 03:21:00,
2013-01-24 22:26:00,15.9,0.9,30.27,NNW,334,2.0,13.0,51,0.00,,,0.00,Wunderground v.1.15,2013-01-25 03:26:00,
2013-01-24 22:31:00,15.9,1.4,30.27,NW,311,1.0,5.0,52,0.00,,,0.00,Wunderground v.1.15,2013-01-25 03:31:00,
2013-01-24 22:36:00,15.8,1.7,30.27,West,278,3.0,10.0,53,0.00,,,0.00,Wunderground v.1.15,2013-01-25 03:36:00,
2013-01-24 22:41:00,15.7,2.0,30.27,WSW,258,7.0,11.0,54,0.00,,,0.00,Wunderground v.1.15,2013-01-25 03:41:00,
2013-01-24 22:46:00,15.7,2.0,30.28,NW,310,4.0,11.0,54,0.00,,,0.00,Wunderground v.1.15,2013-01-25 03:46:00,
2013-01-24 22:51:00,15.8,2.1,30.28,WNW,291,4.0,5.0,54,0.00,,,0.00,Wunderground v.1.15,2013-01-25 03:51:00,
2013-01-24 22:57:00,15.8,2.5,30.28,NNW,340,5.0,11.0,55,0.00,,,0.00,Wunderground v.1.15,2013-01-25 03:57:00,
2013-01-24 23:02:00,15.8,2.9,30.28,NNW,336,2.0,9.0,56,0.00,,,0.00,Wunderground v.1.15,2013-01-25 04:02:00,
2013-01-24 23:07:00,15.7,2.8,30.29,SSW,211,4.0,11.0,56,0.00,,,0.00,Wunderground v.1.15,2013-01-25 04:07:00,
2013-01-24 23:12:00,15.7,3.1,30.29,NW,306,4.0,6.0,57,0.00,,,0.00,Wunderground v.1.15,2013-01-25 04:12:00,
2013-01-24 23:17:00,15.7,3.1,30.28,NNW,330,4.0,10.0,57,0.00,,,0.00,Wunderground v.1.15,2013-01-25 04:17:00,
2013-01-24 23:22:00,15.7,3.1,30.29,WSW,250,5.0,6.0,57,0.00,,,0.00,Wunderground v.1.15,2013-01-25 04:22:00,
2013-01-24 23:27:00,15.7,3.1,30.29,WNW,302,3.0,8.0,57,0.00,,,0.00,Wunderground v.1.15,2013-01-25 04:27:00,
2013-01-24 23:32:00,15.6,3.4,30.29,WNW,289,6.0,6.0,58,0.00,,,0.00,Wunderground v.1.15,2013-01-25 04:32:00,
2013-01-24 23:37:00,15.7,3.5,30.28,WNW,298,5.0,9.0,58,0.00,,,0.00,Wunderground v.1.15,2013-01-25 04:37:00,
2013-01-24 23:42:00,15.7,3.5,30.29,North,355,3.0,4.0,58,0.00,,,0.00,Wunderground v.1.15,2013-01-25 04:42:00,
2013-01-24 23:47:00,15.7,3.5,30.30,North,5,5.0,7.0,58,0.00,,,0.00,Wunderground v.1.15,2013-01-25 04:47:00,
2013-01-24 23:52:00,15.6,3.4,30.30,West,269,2.0,3.0,58,0.00,,,0.00,Wunderground v.1.15,2013-01-25 04:52:00,
2013-01-24 23:57:00,15.6,3.4,30.30,NNW,333,2.0,9.0,58,0.00,,,0.00,Wunderground v.1.15,2013-01-25 04:57:00,